sensor_id;sensor_type;location;lat;lon;timestamp;P1;durP1;ratioP1;P2;durP2;ratioP2
52470;SDS011;38382;53.160;7.026;2023-03-05T00:00:36;11.55;;;1.73;;
52470;SDS011;38382;53.160;7.026;2023-03-05T00:03:02;7.63;;;1.77;;
52470;SDS011;38382;53.160;7.026;2023-03-05T00:05:27;7.40;;;1.90;;
52470;SDS011;38382;53.160;7.026;2023-03-05T00:07:53;8.40;;;2.53;;
52470;SDS011;38382;53.160;7.026;2023-03-05T00:10:19;7.75;;;2.17;;
52470;SDS011;38382;53.160;7.026;2023-03-05T00:12:45;8.32;;;1.90;;
52470;SDS011;38382;53.160;7.026;2023-03-05T00:15:10;5.80;;;2.22;;
52470;SDS011;38382;53.160;7.026;2023-03-05T00:17:36;9.35;;;1.95;;
52470;SDS011;38382;53.160;7.026;2023-03-05T00:20:02;9.75;;;2.20;;
52470;SDS011;38382;53.160;7.026;2023-03-05T00:22:28;6.70;;;1.77;;
52470;SDS011;38382;53.160;7.026;2023-03-05T00:24:54;8.40;;;2.33;;
52470;SDS011;38382;53.160;7.026;2023-03-05T00:27:20;7.65;;;1.67;;
52470;SDS011;38382;53.160;7.026;2023-03-05T00:29:45;6.35;;;1.40;;
52470;SDS011;38382;53.160;7.026;2023-03-05T00:32:11;9.45;;;1.90;;
52470;SDS011;38382;53.160;7.026;2023-03-05T00:34:37;5.68;;;1.90;;
52470;SDS011;38382;53.160;7.026;2023-03-05T00:37:02;7.72;;;1.88;;
52470;SDS011;38382;53.160;7.026;2023-03-05T00:39:28;8.05;;;1.60;;
52470;SDS011;38382;53.160;7.026;2023-03-05T00:41:54;5.22;;;1.80;;
52470;SDS011;38382;53.160;7.026;2023-03-05T00:44:20;7.63;;;2.08;;
52470;SDS011;38382;53.160;7.026;2023-03-05T00:46:46;5.07;;;1.90;;
52470;SDS011;38382;53.160;7.026;2023-03-05T00:49:12;7.00;;;2.10;;
52470;SDS011;38382;53.160;7.026;2023-03-05T00:51:37;6.25;;;2.20;;
52470;SDS011;38382;53.160;7.026;2023-03-05T00:54:03;5.43;;;2.15;;
52470;SDS011;38382;53.160;7.026;2023-03-05T00:56:30;7.60;;;2.25;;
52470;SDS011;38382;53.160;7.026;2023-03-05T00:58:56;6.75;;;2.15;;
52470;SDS011;38382;53.160;7.026;2023-03-05T01:01:22;6.15;;;1.80;;
52470;SDS011;38382;53.160;7.026;2023-03-05T01:03:48;6.65;;;2.00;;
52470;SDS011;38382;53.160;7.026;2023-03-05T01:06:15;6.20;;;2.20;;
52470;SDS011;38382;53.160;7.026;2023-03-05T01:08:41;6.30;;;2.25;;
52470;SDS011;38382;53.160;7.026;2023-03-05T01:11:08;9.18;;;2.38;;
52470;SDS011;38382;53.160;7.026;2023-03-05T01:13:35;9.30;;;2.70;;
52470;SDS011;38382;53.160;7.026;2023-03-05T01:16:02;11.63;;;2.60;;
52470;SDS011;38382;53.160;7.026;2023-03-05T01:18:28;5.50;;;2.13;;
52470;SDS011;38382;53.160;7.026;2023-03-05T01:20:54;12.13;;;2.20;;
52470;SDS011;38382;53.160;7.026;2023-03-05T01:23:19;7.03;;;2.63;;
52470;SDS011;38382;53.160;7.026;2023-03-05T01:25:51;8.55;;;2.85;;
52470;SDS011;38382;53.160;7.026;2023-03-05T01:28:20;12.45;;;2.95;;
52470;SDS011;38382;53.160;7.026;2023-03-05T01:30:46;8.38;;;2.67;;
52470;SDS011;38382;53.160;7.026;2023-03-05T01:33:12;8.68;;;2.45;;
52470;SDS011;38382;53.160;7.026;2023-03-05T01:35:38;6.40;;;1.65;;
52470;SDS011;38382;53.160;7.026;2023-03-05T01:38:04;10.43;;;2.20;;
52470;SDS011;38382;53.160;7.026;2023-03-05T01:40:30;8.95;;;2.30;;
52470;SDS011;38382;53.160;7.026;2023-03-05T01:43:00;6.18;;;2.20;;
52470;SDS011;38382;53.160;7.026;2023-03-05T01:45:37;7.22;;;2.45;;
52470;SDS011;38382;53.160;7.026;2023-03-05T01:48:23;9.55;;;2.53;;
52470;SDS011;38382;53.160;7.026;2023-03-05T01:50:49;8.48;;;2.33;;
52470;SDS011;38382;53.160;7.026;2023-03-05T01:53:15;6.70;;;2.40;;
52470;SDS011;38382;53.160;7.026;2023-03-05T01:55:41;7.57;;;1.90;;
52470;SDS011;38382;53.160;7.026;2023-03-05T01:58:07;9.15;;;1.92;;
52470;SDS011;38382;53.160;7.026;2023-03-05T02:00:38;4.78;;;1.75;;
52470;SDS011;38382;53.160;7.026;2023-03-05T02:03:08;7.37;;;1.77;;
52470;SDS011;38382;53.160;7.026;2023-03-05T02:05:37;7.47;;;1.60;;
52470;SDS011;38382;53.160;7.026;2023-03-05T02:08:06;10.52;;;2.42;;
52470;SDS011;38382;53.160;7.026;2023-03-05T02:10:38;6.18;;;1.70;;
52470;SDS011;38382;53.160;7.026;2023-03-05T02:13:08;6.30;;;2.08;;
52470;SDS011;38382;53.160;7.026;2023-03-05T02:15:36;4.35;;;1.60;;
52470;SDS011;38382;53.160;7.026;2023-03-05T02:18:03;5.50;;;1.70;;
52470;SDS011;38382;53.160;7.026;2023-03-05T02:20:31;7.22;;;1.70;;
52470;SDS011;38382;53.160;7.026;2023-03-05T02:23:26;5.40;;;1.60;;
52470;SDS011;38382;53.160;7.026;2023-03-05T02:25:53;6.53;;;1.60;;
52470;SDS011;38382;53.160;7.026;2023-03-05T02:31:12;4.68;;;1.30;;
52470;SDS011;38382;53.160;7.026;2023-03-05T02:33:46;5.53;;;1.63;;
52470;SDS011;38382;53.160;7.026;2023-03-05T02:36:12;7.85;;;1.98;;
52470;SDS011;38382;53.160;7.026;2023-03-05T02:38:38;7.93;;;1.73;;
52470;SDS011;38382;53.160;7.026;2023-03-05T02:41:05;3.53;;;1.50;;
52470;SDS011;38382;53.160;7.026;2023-03-05T02:43:31;5.75;;;1.33;;
52470;SDS011;38382;53.160;7.026;2023-03-05T02:45:57;5.47;;;1.50;;
52470;SDS011;38382;53.160;7.026;2023-03-05T02:48:22;3.88;;;1.60;;
52470;SDS011;38382;53.160;7.026;2023-03-05T02:50:48;4.82;;;1.55;;
52470;SDS011;38382;53.160;7.026;2023-03-05T02:53:14;4.68;;;1.40;;
52470;SDS011;38382;53.160;7.026;2023-03-05T02:55:40;4.25;;;1.40;;
52470;SDS011;38382;53.160;7.026;2023-03-05T02:58:06;5.25;;;1.48;;
52470;SDS011;38382;53.160;7.026;2023-03-05T03:00:31;4.47;;;1.33;;
52470;SDS011;38382;53.160;7.026;2023-03-05T03:02:57;3.42;;;1.35;;
52470;SDS011;38382;53.160;7.026;2023-03-05T03:05:23;4.20;;;1.30;;
52470;SDS011;38382;53.160;7.026;2023-03-05T03:07:49;5.88;;;1.60;;
52470;SDS011;38382;53.160;7.026;2023-03-05T03:10:15;7.90;;;1.55;;
52470;SDS011;38382;53.160;7.026;2023-03-05T03:12:42;5.03;;;1.70;;
52470;SDS011;38382;53.160;7.026;2023-03-05T03:15:10;6.05;;;1.50;;
52470;SDS011;38382;53.160;7.026;2023-03-05T03:17:37;3.72;;;1.30;;
52470;SDS011;38382;53.160;7.026;2023-03-05T03:20:05;6.45;;;1.60;;
52470;SDS011;38382;53.160;7.026;2023-03-05T03:22:33;5.78;;;1.95;;
52470;SDS011;38382;53.160;7.026;2023-03-05T03:24:59;2.92;;;1.35;;
52470;SDS011;38382;53.160;7.026;2023-03-05T03:27:25;7.60;;;1.63;;
52470;SDS011;38382;53.160;7.026;2023-03-05T03:29:51;4.65;;;1.60;;
52470;SDS011;38382;53.160;7.026;2023-03-05T03:32:17;5.47;;;2.70;;
52470;SDS011;38382;53.160;7.026;2023-03-05T03:34:42;5.97;;;2.20;;
52470;SDS011;38382;53.160;7.026;2023-03-05T03:37:09;7.03;;;1.85;;
52470;SDS011;38382;53.160;7.026;2023-03-05T03:39:35;5.55;;;1.70;;
52470;SDS011;38382;53.160;7.026;2023-03-05T03:42:01;3.60;;;1.73;;
52470;SDS011;38382;53.160;7.026;2023-03-05T03:44:26;4.38;;;1.80;;
52470;SDS011;38382;53.160;7.026;2023-03-05T03:46:52;6.80;;;1.75;;
52470;SDS011;38382;53.160;7.026;2023-03-05T03:49:20;4.72;;;1.65;;
52470;SDS011;38382;53.160;7.026;2023-03-05T03:51:47;9.63;;;1.45;;
52470;SDS011;38382;53.160;7.026;2023-03-05T03:54:14;5.28;;;1.50;;
52470;SDS011;38382;53.160;7.026;2023-03-05T03:56:41;6.28;;;1.50;;
52470;SDS011;38382;53.160;7.026;2023-03-05T03:59:07;4.40;;;1.58;;
52470;SDS011;38382;53.160;7.026;2023-03-05T04:01:33;4.30;;;2.42;;
52470;SDS011;38382;53.160;7.026;2023-03-05T04:03:59;3.47;;;1.50;;
52470;SDS011;38382;53.160;7.026;2023-03-05T04:06:25;4.97;;;1.60;;
52470;SDS011;38382;53.160;7.026;2023-03-05T04:08:51;4.65;;;1.60;;
52470;SDS011;38382;53.160;7.026;2023-03-05T04:11:17;7.25;;;1.83;;
52470;SDS011;38382;53.160;7.026;2023-03-05T04:13:46;5.85;;;1.70;;
52470;SDS011;38382;53.160;7.026;2023-03-05T04:16:12;6.22;;;1.80;;
52470;SDS011;38382;53.160;7.026;2023-03-05T04:18:39;6.55;;;1.70;;
52470;SDS011;38382;53.160;7.026;2023-03-05T04:21:06;10.57;;;1.67;;
52470;SDS011;38382;53.160;7.026;2023-03-05T04:23:32;4.68;;;1.50;;
52470;SDS011;38382;53.160;7.026;2023-03-05T04:25:58;5.00;;;1.70;;
52470;SDS011;38382;53.160;7.026;2023-03-05T04:28:24;4.82;;;1.70;;
52470;SDS011;38382;53.160;7.026;2023-03-05T04:30:49;5.80;;;1.60;;
52470;SDS011;38382;53.160;7.026;2023-03-05T04:33:16;7.88;;;1.67;;
52470;SDS011;38382;53.160;7.026;2023-03-05T04:35:41;5.13;;;1.90;;
52470;SDS011;38382;53.160;7.026;2023-03-05T04:38:08;5.65;;;1.40;;
52470;SDS011;38382;53.160;7.026;2023-03-05T04:40:34;5.38;;;1.50;;
52470;SDS011;38382;53.160;7.026;2023-03-05T04:43:00;4.40;;;1.40;;
52470;SDS011;38382;53.160;7.026;2023-03-05T04:45:27;2.65;;;1.35;;
52470;SDS011;38382;53.160;7.026;2023-03-05T04:47:53;2.20;;;1.20;;
52470;SDS011;38382;53.160;7.026;2023-03-05T04:50:19;4.70;;;1.40;;
52470;SDS011;38382;53.160;7.026;2023-03-05T04:52:44;3.78;;;1.27;;
52470;SDS011;38382;53.160;7.026;2023-03-05T04:55:11;2.83;;;1.20;;
52470;SDS011;38382;53.160;7.026;2023-03-05T04:57:39;4.95;;;1.60;;
52470;SDS011;38382;53.160;7.026;2023-03-05T05:00:06;3.95;;;1.15;;
52470;SDS011;38382;53.160;7.026;2023-03-05T05:02:44;2.95;;;1.30;;
52470;SDS011;38382;53.160;7.026;2023-03-05T05:05:12;6.45;;;1.33;;
52470;SDS011;38382;53.160;7.026;2023-03-05T05:07:40;3.42;;;1.10;;
52470;SDS011;38382;53.160;7.026;2023-03-05T05:10:06;4.90;;;1.23;;
52470;SDS011;38382;53.160;7.026;2023-03-05T05:12:33;5.90;;;1.27;;
52470;SDS011;38382;53.160;7.026;2023-03-05T05:14:59;4.88;;;1.27;;
52470;SDS011;38382;53.160;7.026;2023-03-05T05:17:25;4.97;;;1.48;;
52470;SDS011;38382;53.160;7.026;2023-03-05T05:19:54;5.57;;;1.50;;
52470;SDS011;38382;53.160;7.026;2023-03-05T05:22:21;5.57;;;1.50;;
52470;SDS011;38382;53.160;7.026;2023-03-05T05:24:47;3.33;;;1.35;;
52470;SDS011;38382;53.160;7.026;2023-03-05T05:27:12;5.85;;;1.42;;
52470;SDS011;38382;53.160;7.026;2023-03-05T05:29:38;3.53;;;1.40;;
52470;SDS011;38382;53.160;7.026;2023-03-05T05:32:04;6.20;;;1.67;;
52470;SDS011;38382;53.160;7.026;2023-03-05T05:34:30;5.10;;;1.50;;
52470;SDS011;38382;53.160;7.026;2023-03-05T05:36:56;5.15;;;1.25;;
52470;SDS011;38382;53.160;7.026;2023-03-05T05:39:22;4.80;;;1.38;;
52470;SDS011;38382;53.160;7.026;2023-03-05T05:41:51;5.07;;;1.48;;
52470;SDS011;38382;53.160;7.026;2023-03-05T05:44:18;5.22;;;1.30;;
52470;SDS011;38382;53.160;7.026;2023-03-05T05:46:44;4.13;;;1.50;;
52470;SDS011;38382;53.160;7.026;2023-03-05T05:49:09;4.50;;;1.52;;
52470;SDS011;38382;53.160;7.026;2023-03-05T05:51:35;3.47;;;1.70;;
52470;SDS011;38382;53.160;7.026;2023-03-05T05:54:01;5.68;;;1.50;;
52470;SDS011;38382;53.160;7.026;2023-03-05T05:56:27;6.32;;;1.60;;
52470;SDS011;38382;53.160;7.026;2023-03-05T05:58:52;10.05;;;1.90;;
52470;SDS011;38382;53.160;7.026;2023-03-05T06:01:23;5.38;;;1.65;;
52470;SDS011;38382;53.160;7.026;2023-03-05T06:03:50;6.18;;;1.50;;
52470;SDS011;38382;53.160;7.026;2023-03-05T06:06:17;3.80;;;1.42;;
52470;SDS011;38382;53.160;7.026;2023-03-05T06:08:44;3.95;;;1.50;;
52470;SDS011;38382;53.160;7.026;2023-03-05T06:11:10;4.53;;;1.30;;
52470;SDS011;38382;53.160;7.026;2023-03-05T06:13:36;8.18;;;1.60;;
52470;SDS011;38382;53.160;7.026;2023-03-05T06:16:04;5.57;;;1.70;;
52470;SDS011;38382;53.160;7.026;2023-03-05T06:18:32;6.28;;;1.70;;
52470;SDS011;38382;53.160;7.026;2023-03-05T06:21:00;7.97;;;1.77;;
52470;SDS011;38382;53.160;7.026;2023-03-05T06:23:28;6.60;;;1.88;;
52470;SDS011;38382;53.160;7.026;2023-03-05T06:25:58;3.97;;;1.65;;
52470;SDS011;38382;53.160;7.026;2023-03-05T06:28:25;4.82;;;1.70;;
52470;SDS011;38382;53.160;7.026;2023-03-05T06:30:58;5.60;;;1.60;;
52470;SDS011;38382;53.160;7.026;2023-03-05T06:33:29;4.25;;;1.55;;
52470;SDS011;38382;53.160;7.026;2023-03-05T06:35:55;6.32;;;1.98;;
52470;SDS011;38382;53.160;7.026;2023-03-05T06:38:22;5.10;;;1.70;;
52470;SDS011;38382;53.160;7.026;2023-03-05T06:40:48;3.70;;;1.73;;
52470;SDS011;38382;53.160;7.026;2023-03-05T06:43:13;4.85;;;1.45;;
52470;SDS011;38382;53.160;7.026;2023-03-05T06:45:39;6.88;;;1.90;;
52470;SDS011;38382;53.160;7.026;2023-03-05T06:48:05;3.50;;;1.38;;
52470;SDS011;38382;53.160;7.026;2023-03-05T06:50:33;8.02;;;1.88;;
52470;SDS011;38382;53.160;7.026;2023-03-05T06:53:00;4.43;;;1.67;;
52470;SDS011;38382;53.160;7.026;2023-03-05T06:55:26;5.70;;;1.88;;
52470;SDS011;38382;53.160;7.026;2023-03-05T06:57:52;8.68;;;1.73;;
52470;SDS011;38382;53.160;7.026;2023-03-05T07:00:17;8.15;;;2.03;;
52470;SDS011;38382;53.160;7.026;2023-03-05T07:02:43;9.38;;;1.98;;
52470;SDS011;38382;53.160;7.026;2023-03-05T07:05:09;4.10;;;2.15;;
52470;SDS011;38382;53.160;7.026;2023-03-05T07:07:35;6.95;;;1.40;;
52470;SDS011;38382;53.160;7.026;2023-03-05T07:10:01;4.90;;;1.65;;
52470;SDS011;38382;53.160;7.026;2023-03-05T07:12:27;9.32;;;1.90;;
52470;SDS011;38382;53.160;7.026;2023-03-05T07:14:53;7.68;;;2.58;;
52470;SDS011;38382;53.160;7.026;2023-03-05T07:17:19;5.07;;;1.70;;
52470;SDS011;38382;53.160;7.026;2023-03-05T07:19:44;7.15;;;1.90;;
52470;SDS011;38382;53.160;7.026;2023-03-05T07:22:10;3.95;;;1.70;;
52470;SDS011;38382;53.160;7.026;2023-03-05T07:24:36;5.18;;;1.77;;
52470;SDS011;38382;53.160;7.026;2023-03-05T07:27:02;6.20;;;1.83;;
52470;SDS011;38382;53.160;7.026;2023-03-05T07:29:28;5.85;;;1.90;;
52470;SDS011;38382;53.160;7.026;2023-03-05T07:31:53;4.72;;;1.70;;
52470;SDS011;38382;53.160;7.026;2023-03-05T07:34:20;7.13;;;2.00;;
52470;SDS011;38382;53.160;7.026;2023-03-05T07:36:55;6.63;;;2.00;;
52470;SDS011;38382;53.160;7.026;2023-03-05T07:39:21;6.63;;;2.20;;
52470;SDS011;38382;53.160;7.026;2023-03-05T07:41:47;9.02;;;2.22;;
52470;SDS011;38382;53.160;7.026;2023-03-05T07:44:15;7.93;;;1.88;;
52470;SDS011;38382;53.160;7.026;2023-03-05T07:46:42;4.75;;;1.63;;
52470;SDS011;38382;53.160;7.026;2023-03-05T07:49:08;7.10;;;1.85;;
52470;SDS011;38382;53.160;7.026;2023-03-05T07:51:33;4.95;;;1.48;;
52470;SDS011;38382;53.160;7.026;2023-03-05T07:53:59;6.13;;;1.58;;
52470;SDS011;38382;53.160;7.026;2023-03-05T07:56:32;7.30;;;1.70;;
52470;SDS011;38382;53.160;7.026;2023-03-05T07:59:07;8.73;;;1.77;;
52470;SDS011;38382;53.160;7.026;2023-03-05T08:01:35;6.32;;;1.60;;
52470;SDS011;38382;53.160;7.026;2023-03-05T08:04:02;5.50;;;1.52;;
52470;SDS011;38382;53.160;7.026;2023-03-05T08:06:29;5.43;;;1.90;;
52470;SDS011;38382;53.160;7.026;2023-03-05T08:08:55;5.18;;;1.45;;
52470;SDS011;38382;53.160;7.026;2023-03-05T08:11:22;9.52;;;1.60;;
52470;SDS011;38382;53.160;7.026;2023-03-05T08:13:48;7.28;;;1.58;;
52470;SDS011;38382;53.160;7.026;2023-03-05T08:16:18;4.82;;;1.40;;
52470;SDS011;38382;53.160;7.026;2023-03-05T08:18:45;9.07;;;1.90;;
52470;SDS011;38382;53.160;7.026;2023-03-05T08:21:30;9.60;;;1.75;;
52470;SDS011;38382;53.160;7.026;2023-03-05T08:23:58;4.25;;;1.27;;
52470;SDS011;38382;53.160;7.026;2023-03-05T08:26:26;7.13;;;1.40;;
52470;SDS011;38382;53.160;7.026;2023-03-05T08:28:54;7.57;;;1.75;;
52470;SDS011;38382;53.160;7.026;2023-03-05T08:31:21;8.43;;;1.60;;
52470;SDS011;38382;53.160;7.026;2023-03-05T08:33:48;6.25;;;1.50;;
52470;SDS011;38382;53.160;7.026;2023-03-05T08:36:16;8.10;;;2.05;;
52470;SDS011;38382;53.160;7.026;2023-03-05T08:38:41;6.07;;;1.77;;
52470;SDS011;38382;53.160;7.026;2023-03-05T08:41:09;4.45;;;1.58;;
52470;SDS011;38382;53.160;7.026;2023-03-05T08:43:35;3.80;;;1.40;;
52470;SDS011;38382;53.160;7.026;2023-03-05T08:46:01;5.03;;;1.60;;
52470;SDS011;38382;53.160;7.026;2023-03-05T08:48:28;5.45;;;1.60;;
52470;SDS011;38382;53.160;7.026;2023-03-05T08:50:54;7.65;;;2.47;;
52470;SDS011;38382;53.160;7.026;2023-03-05T08:53:20;4.05;;;1.40;;
52470;SDS011;38382;53.160;7.026;2023-03-05T08:55:56;5.03;;;1.40;;
52470;SDS011;38382;53.160;7.026;2023-03-05T08:58:22;4.97;;;1.50;;
52470;SDS011;38382;53.160;7.026;2023-03-05T09:00:48;6.15;;;1.50;;
52470;SDS011;38382;53.160;7.026;2023-03-05T09:03:14;5.55;;;1.60;;
52470;SDS011;38382;53.160;7.026;2023-03-05T09:05:40;6.57;;;1.77;;
52470;SDS011;38382;53.160;7.026;2023-03-05T09:08:06;8.30;;;1.50;;
52470;SDS011;38382;53.160;7.026;2023-03-05T09:10:31;7.85;;;1.60;;
52470;SDS011;38382;53.160;7.026;2023-03-05T09:12:57;4.50;;;1.40;;
52470;SDS011;38382;53.160;7.026;2023-03-05T09:15:23;3.97;;;1.33;;
52470;SDS011;38382;53.160;7.026;2023-03-05T09:17:49;7.40;;;1.60;;
52470;SDS011;38382;53.160;7.026;2023-03-05T09:20:14;4.32;;;1.67;;
52470;SDS011;38382;53.160;7.026;2023-03-05T09:22:40;4.32;;;1.60;;
52470;SDS011;38382;53.160;7.026;2023-03-05T09:25:07;4.32;;;1.20;;
52470;SDS011;38382;53.160;7.026;2023-03-05T09:27:35;6.18;;;1.45;;
52470;SDS011;38382;53.160;7.026;2023-03-05T09:30:01;3.75;;;1.20;;
52470;SDS011;38382;53.160;7.026;2023-03-05T09:32:28;7.43;;;1.40;;
52470;SDS011;38382;53.160;7.026;2023-03-05T09:34:54;8.05;;;1.40;;
52470;SDS011;38382;53.160;7.026;2023-03-05T09:37:20;7.60;;;1.50;;
52470;SDS011;38382;53.160;7.026;2023-03-05T09:39:46;3.63;;;1.35;;
52470;SDS011;38382;53.160;7.026;2023-03-05T09:45:09;4.80;;;1.30;;
52470;SDS011;38382;53.160;7.026;2023-03-05T09:55:50;5.00;;;1.30;;
52470;SDS011;38382;53.160;7.026;2023-03-05T09:58:21;6.18;;;1.48;;
52470;SDS011;38382;53.160;7.026;2023-03-05T10:00:53;5.47;;;1.20;;
52470;SDS011;38382;53.160;7.026;2023-03-05T10:03:31;3.17;;;1.10;;
52470;SDS011;38382;53.160;7.026;2023-03-05T10:06:20;3.58;;;1.13;;
52470;SDS011;38382;53.160;7.026;2023-03-05T10:09:02;5.55;;;1.45;;
52470;SDS011;38382;53.160;7.026;2023-03-05T10:14:13;4.30;;;1.35;;
52470;SDS011;38382;53.160;7.026;2023-03-05T10:22:17;4.70;;;1.38;;
52470;SDS011;38382;53.160;7.026;2023-03-05T10:27:20;5.32;;;1.30;;
52470;SDS011;38382;53.160;7.026;2023-03-05T10:38:15;2.95;;;1.17;;
52470;SDS011;38382;53.160;7.026;2023-03-05T10:41:06;4.03;;;1.20;;
52470;SDS011;38382;53.160;7.026;2023-03-05T10:44:05;5.80;;;1.30;;
52470;SDS011;38382;53.160;7.026;2023-03-05T10:46:42;9.05;;;1.50;;
52470;SDS011;38382;53.160;7.026;2023-03-05T10:49:17;5.35;;;1.30;;
52470;SDS011;38382;53.160;7.026;2023-03-05T10:51:57;3.85;;;1.15;;
52470;SDS011;38382;53.160;7.026;2023-03-05T10:54:31;4.57;;;2.15;;
52470;SDS011;38382;53.160;7.026;2023-03-05T10:57:17;9.52;;;1.52;;
52470;SDS011;38382;53.160;7.026;2023-03-05T10:59:48;7.45;;;1.50;;
52470;SDS011;38382;53.160;7.026;2023-03-05T11:02:14;6.95;;;1.52;;
52470;SDS011;38382;53.160;7.026;2023-03-05T11:04:40;6.45;;;1.52;;
52470;SDS011;38382;53.160;7.026;2023-03-05T11:09:42;4.15;;;1.13;;
52470;SDS011;38382;53.160;7.026;2023-03-05T11:12:31;5.80;;;1.30;;
52470;SDS011;38382;53.160;7.026;2023-03-05T11:18:02;3.75;;;1.17;;
52470;SDS011;38382;53.160;7.026;2023-03-05T11:20:33;5.97;;;1.15;;
52470;SDS011;38382;53.160;7.026;2023-03-05T11:25:33;7.43;;;1.48;;
52470;SDS011;38382;53.160;7.026;2023-03-05T11:28:00;5.75;;;1.30;;
52470;SDS011;38382;53.160;7.026;2023-03-05T11:30:28;8.30;;;1.58;;
52470;SDS011;38382;53.160;7.026;2023-03-05T11:33:18;5.10;;;1.20;;
52470;SDS011;38382;53.160;7.026;2023-03-05T11:35:47;4.47;;;1.40;;
52470;SDS011;38382;53.160;7.026;2023-03-05T11:38:22;4.28;;;1.33;;
52470;SDS011;38382;53.160;7.026;2023-03-05T11:40:51;5.15;;;1.23;;
52470;SDS011;38382;53.160;7.026;2023-03-05T11:43:20;5.47;;;1.35;;
52470;SDS011;38382;53.160;7.026;2023-03-05T11:45:49;6.28;;;1.55;;
52470;SDS011;38382;53.160;7.026;2023-03-05T11:48:27;2.87;;;1.10;;
52470;SDS011;38382;53.160;7.026;2023-03-05T11:51:02;6.55;;;1.38;;
52470;SDS011;38382;53.160;7.026;2023-03-05T11:53:40;6.35;;;1.35;;
52470;SDS011;38382;53.160;7.026;2023-03-05T12:01:34;4.75;;;1.40;;
52470;SDS011;38382;53.160;7.026;2023-03-05T12:04:04;4.03;;;1.50;;
52470;SDS011;38382;53.160;7.026;2023-03-05T12:09:14;5.13;;;1.33;;
52470;SDS011;38382;53.160;7.026;2023-03-05T12:12:11;6.45;;;1.30;;
52470;SDS011;38382;53.160;7.026;2023-03-05T12:15:24;4.28;;;1.35;;
52470;SDS011;38382;53.160;7.026;2023-03-05T12:21:23;3.63;;;1.30;;
52470;SDS011;38382;53.160;7.026;2023-03-05T12:24:31;5.60;;;1.40;;
52470;SDS011;38382;53.160;7.026;2023-03-05T12:29:37;3.28;;;1.10;;
52470;SDS011;38382;53.160;7.026;2023-03-05T12:47:42;7.03;;;1.40;;
52470;SDS011;38382;53.160;7.026;2023-03-05T12:55:31;6.13;;;1.80;;
52470;SDS011;38382;53.160;7.026;2023-03-05T13:03:36;5.15;;;1.25;;
52470;SDS011;38382;53.160;7.026;2023-03-05T13:06:03;5.75;;;1.40;;
52470;SDS011;38382;53.160;7.026;2023-03-05T13:08:32;3.72;;;1.63;;
52470;SDS011;38382;53.160;7.026;2023-03-05T13:11:07;4.00;;;1.27;;
52470;SDS011;38382;53.160;7.026;2023-03-05T13:16:25;4.88;;;1.90;;
52470;SDS011;38382;53.160;7.026;2023-03-05T13:18:53;8.57;;;1.73;;
52470;SDS011;38382;53.160;7.026;2023-03-05T13:21:25;9.50;;;1.50;;
52470;SDS011;38382;53.160;7.026;2023-03-05T13:23:58;4.93;;;1.40;;
52470;SDS011;38382;53.160;7.026;2023-03-05T13:26:36;3.67;;;1.10;;
52470;SDS011;38382;53.160;7.026;2023-03-05T13:29:20;5.07;;;1.30;;
52470;SDS011;38382;53.160;7.026;2023-03-05T13:34:22;6.68;;;1.40;;
52470;SDS011;38382;53.160;7.026;2023-03-05T13:36:58;4.05;;;1.20;;
52470;SDS011;38382;53.160;7.026;2023-03-05T13:39:28;3.33;;;1.10;;
52470;SDS011;38382;53.160;7.026;2023-03-05T13:42:04;4.93;;;1.15;;
52470;SDS011;38382;53.160;7.026;2023-03-05T13:44:40;2.63;;;1.00;;
52470;SDS011;38382;53.160;7.026;2023-03-05T13:47:08;2.65;;;1.00;;
52470;SDS011;38382;53.160;7.026;2023-03-05T13:49:34;3.97;;;1.25;;
52470;SDS011;38382;53.160;7.026;2023-03-05T13:51:59;5.00;;;1.20;;
52470;SDS011;38382;53.160;7.026;2023-03-05T13:54:26;5.05;;;1.52;;
52470;SDS011;38382;53.160;7.026;2023-03-05T13:56:56;5.50;;;1.38;;
52470;SDS011;38382;53.160;7.026;2023-03-05T13:59:25;3.70;;;1.30;;
52470;SDS011;38382;53.160;7.026;2023-03-05T14:01:55;7.50;;;1.00;;
52470;SDS011;38382;53.160;7.026;2023-03-05T14:04:24;4.22;;;1.20;;
52470;SDS011;38382;53.160;7.026;2023-03-05T14:06:54;3.42;;;1.17;;
52470;SDS011;38382;53.160;7.026;2023-03-05T14:09:26;4.72;;;1.40;;
52470;SDS011;38382;53.160;7.026;2023-03-05T14:12:01;5.05;;;1.20;;
52470;SDS011;38382;53.160;7.026;2023-03-05T14:14:30;9.32;;;1.30;;
52470;SDS011;38382;53.160;7.026;2023-03-05T14:17:19;4.72;;;1.23;;
52470;SDS011;38382;53.160;7.026;2023-03-05T14:22:35;2.47;;;1.10;;
52470;SDS011;38382;53.160;7.026;2023-03-05T14:25:04;3.15;;;1.20;;
52470;SDS011;38382;53.160;7.026;2023-03-05T14:27:34;6.65;;;1.40;;
52470;SDS011;38382;53.160;7.026;2023-03-05T14:30:02;5.43;;;1.20;;
52470;SDS011;38382;53.160;7.026;2023-03-05T14:32:32;5.07;;;1.42;;
52470;SDS011;38382;53.160;7.026;2023-03-05T14:35:01;2.67;;;1.00;;
52470;SDS011;38382;53.160;7.026;2023-03-05T14:37:35;2.83;;;1.50;;
52470;SDS011;38382;53.160;7.026;2023-03-05T14:42:53;3.85;;;1.33;;
52470;SDS011;38382;53.160;7.026;2023-03-05T14:45:30;6.43;;;1.50;;
52470;SDS011;38382;53.160;7.026;2023-03-05T14:47:58;4.15;;;1.50;;
52470;SDS011;38382;53.160;7.026;2023-03-05T14:50:29;8.50;;;1.58;;
52470;SDS011;38382;53.160;7.026;2023-03-05T14:52:59;5.00;;;1.20;;
52470;SDS011;38382;53.160;7.026;2023-03-05T14:55:28;4.22;;;1.65;;
52470;SDS011;38382;53.160;7.026;2023-03-05T14:58:17;5.53;;;1.30;;
52470;SDS011;38382;53.160;7.026;2023-03-05T15:00:44;2.90;;;1.13;;
52470;SDS011;38382;53.160;7.026;2023-03-05T15:03:13;5.10;;;1.20;;
52470;SDS011;38382;53.160;7.026;2023-03-05T15:05:41;5.32;;;1.35;;
52470;SDS011;38382;53.160;7.026;2023-03-05T15:08:12;3.92;;;1.20;;
52470;SDS011;38382;53.160;7.026;2023-03-05T15:10:53;7.18;;;1.55;;
52470;SDS011;38382;53.160;7.026;2023-03-05T15:13:19;4.30;;;1.20;;
52470;SDS011;38382;53.160;7.026;2023-03-05T15:15:46;2.72;;;1.35;;
52470;SDS011;38382;53.160;7.026;2023-03-05T15:18:13;4.55;;;1.20;;
52470;SDS011;38382;53.160;7.026;2023-03-05T15:20:40;5.13;;;1.35;;
52470;SDS011;38382;53.160;7.026;2023-03-05T15:23:07;5.68;;;1.30;;
52470;SDS011;38382;53.160;7.026;2023-03-05T15:25:33;3.92;;;1.30;;
52470;SDS011;38382;53.160;7.026;2023-03-05T15:27:59;5.45;;;1.30;;
52470;SDS011;38382;53.160;7.026;2023-03-05T15:30:26;4.63;;;1.20;;
52470;SDS011;38382;53.160;7.026;2023-03-05T15:32:53;5.40;;;1.40;;
52470;SDS011;38382;53.160;7.026;2023-03-05T15:35:20;4.55;;;1.30;;
52470;SDS011;38382;53.160;7.026;2023-03-05T15:37:46;3.88;;;1.30;;
52470;SDS011;38382;53.160;7.026;2023-03-05T15:40:12;5.35;;;1.20;;
52470;SDS011;38382;53.160;7.026;2023-03-05T15:42:38;3.80;;;1.20;;
52470;SDS011;38382;53.160;7.026;2023-03-05T15:45:04;5.53;;;1.40;;
52470;SDS011;38382;53.160;7.026;2023-03-05T15:47:31;5.68;;;1.58;;
52470;SDS011;38382;53.160;7.026;2023-03-05T15:49:57;7.03;;;1.50;;
52470;SDS011;38382;53.160;7.026;2023-03-05T15:52:23;8.60;;;1.45;;
52470;SDS011;38382;53.160;7.026;2023-03-05T15:54:48;6.75;;;1.33;;
52470;SDS011;38382;53.160;7.026;2023-03-05T15:57:14;6.78;;;1.50;;
52470;SDS011;38382;53.160;7.026;2023-03-05T15:59:47;5.85;;;1.35;;
52470;SDS011;38382;53.160;7.026;2023-03-05T16:02:13;6.70;;;1.40;;
52470;SDS011;38382;53.160;7.026;2023-03-05T16:04:39;4.10;;;1.38;;
52470;SDS011;38382;53.160;7.026;2023-03-05T16:07:05;2.95;;;1.10;;
52470;SDS011;38382;53.160;7.026;2023-03-05T16:09:36;3.30;;;1.20;;
52470;SDS011;38382;53.160;7.026;2023-03-05T16:12:06;4.35;;;1.35;;
52470;SDS011;38382;53.160;7.026;2023-03-05T16:14:36;2.53;;;1.00;;
52470;SDS011;38382;53.160;7.026;2023-03-05T16:17:03;3.28;;;1.20;;
52470;SDS011;38382;53.160;7.026;2023-03-05T16:19:30;3.70;;;1.20;;
52470;SDS011;38382;53.160;7.026;2023-03-05T16:21:59;4.22;;;1.38;;
52470;SDS011;38382;53.160;7.026;2023-03-05T16:24:25;4.28;;;1.23;;
52470;SDS011;38382;53.160;7.026;2023-03-05T16:26:52;4.65;;;1.25;;
52470;SDS011;38382;53.160;7.026;2023-03-05T16:29:18;3.50;;;1.30;;